sensor_id;sensor_type;location;lat;lon;timestamp;pressure;altitude;pressure_sealevel;temperature;humidity
13080;BME280;6606;49.154;9.280;2023-02-27T00:01:33;100262.47;;;-1.03;100.00
13080;BME280;6606;49.154;9.280;2023-02-27T00:04:15;100265.94;;;-1.04;100.00
13080;BME280;6606;49.154;9.280;2023-02-27T00:06:56;100264.22;;;-1.02;100.00
13080;BME280;6606;49.154;9.280;2023-02-27T00:09:38;100265.94;;;-1.01;100.00
13080;BME280;6606;49.154;9.280;2023-02-27T00:12:22;100262.44;;;-1.06;100.00
13080;BME280;6606;49.154;9.280;2023-02-27T00:15:05;100272.03;;;-1.02;100.00
13080;BME280;6606;49.154;9.280;2023-02-27T00:17:47;100265.94;;;-1.05;100.00
13080;BME280;6606;49.154;9.280;2023-02-27T00:20:30;100266.81;;;-1.05;100.00
13080;BME280;6606;49.154;9.280;2023-02-27T00:23:17;100266.78;;;-1.06;100.00
13080;BME280;6606;49.154;9.280;2023-02-27T00:25:58;100259.84;;;-1.04;100.00
13080;BME280;6606;49.154;9.280;2023-02-27T00:28:45;100265.91;;;-1.07;100.00
13080;BME280;6606;49.154;9.280;2023-02-27T00:31:27;100259.84;;;-1.11;100.00
13080;BME280;6606;49.154;9.280;2023-02-27T00:34:08;100255.50;;;-1.07;100.00
13080;BME280;6606;49.154;9.280;2023-02-27T00:36:50;100261.56;;;-1.06;100.00
13080;BME280;6606;49.154;9.280;2023-02-27T00:39:32;100259.84;;;-1.07;100.00
13080;BME280;6606;49.154;9.280;2023-02-27T00:42:14;100259.84;;;-1.06;100.00
13080;BME280;6606;49.154;9.280;2023-02-27T00:44:57;100271.13;;;-1.07;100.00
13080;BME280;6606;49.154;9.280;2023-02-27T00:47:39;100257.28;;;-1.03;100.00
13080;BME280;6606;49.154;9.280;2023-02-27T00:50:21;100253.78;;;-1.05;100.00
13080;BME280;6606;49.154;9.280;2023-02-27T00:53:03;100261.63;;;-1.02;100.00
13080;BME280;6606;49.154;9.280;2023-02-27T00:55:45;100259.00;;;-1.03;100.00
13080;BME280;6606;49.154;9.280;2023-02-27T00:58:27;100257.22;;;-1.09;100.00
13080;BME280;6606;49.154;9.280;2023-02-27T01:01:10;100258.13;;;-1.05;100.00
13080;BME280;6606;49.154;9.280;2023-02-27T01:03:52;100258.13;;;-1.04;100.00
13080;BME280;6606;49.154;9.280;2023-02-27T01:06:33;100256.38;;;-1.06;100.00
13080;BME280;6606;49.154;9.280;2023-02-27T01:09:15;100253.75;;;-1.09;100.00
13080;BME280;6606;49.154;9.280;2023-02-27T01:11:57;100249.41;;;-1.09;100.00
13080;BME280;6606;49.154;9.280;2023-02-27T01:14:38;100252.88;;;-1.13;100.00
13080;BME280;6606;49.154;9.280;2023-02-27T01:17:21;100247.66;;;-1.16;100.00
13080;BME280;6606;49.154;9.280;2023-02-27T01:20:05;100246.75;;;-1.24;100.00
13080;BME280;6606;49.154;9.280;2023-02-27T01:22:47;100244.13;;;-1.26;100.00
13080;BME280;6606;49.154;9.280;2023-02-27T01:25:29;100253.63;;;-1.29;100.00
13080;BME280;6606;49.154;9.280;2023-02-27T01:28:11;100251.00;;;-1.31;100.00
13080;BME280;6606;49.154;9.280;2023-02-27T01:30:53;100250.97;;;-1.37;100.00
13080;BME280;6606;49.154;9.280;2023-02-27T01:33:36;100255.34;;;-1.35;100.00
13080;BME280;6606;49.154;9.280;2023-02-27T01:36:17;100253.56;;;-1.39;100.00
13080;BME280;6606;49.154;9.280;2023-02-27T01:38:59;100250.09;;;-1.38;100.00
13080;BME280;6606;49.154;9.280;2023-02-27T01:41:41;100241.44;;;-1.35;100.00
13080;BME280;6606;49.154;9.280;2023-02-27T01:44:26;100253.56;;;-1.36;100.00
13080;BME280;6606;49.154;9.280;2023-02-27T01:47:08;100246.66;;;-1.37;100.00
13080;BME280;6606;49.154;9.280;2023-02-27T01:49:54;100250.06;;;-1.41;100.00
13080;BME280;6606;49.154;9.280;2023-02-27T01:52:36;100250.09;;;-1.38;100.00
13080;BME280;6606;49.154;9.280;2023-02-27T01:55:19;100255.28;;;-1.38;100.00
13080;BME280;6606;49.154;9.280;2023-02-27T01:58:02;100256.13;;;-1.42;100.00
13080;BME280;6606;49.154;9.280;2023-02-27T02:00:45;100246.66;;;-1.37;100.00
13080;BME280;6606;49.154;9.280;2023-02-27T02:03:32;100250.09;;;-1.38;100.00
13080;BME280;6606;49.154;9.280;2023-02-27T02:06:17;100253.53;;;-1.45;100.00
13080;BME280;6606;49.154;9.280;2023-02-27T02:09:00;100249.16;;;-1.46;100.00
13080;BME280;6606;49.154;9.280;2023-02-27T02:11:43;100253.53;;;-1.42;100.00
13080;BME280;6606;49.154;9.280;2023-02-27T02:14:25;100245.75;;;-1.42;100.00
13080;BME280;6606;49.154;9.280;2023-02-27T02:17:13;100238.81;;;-1.43;100.00
13080;BME280;6606;49.154;9.280;2023-02-27T02:26:51;100255.19;;;-1.48;100.00
13080;BME280;6606;49.154;9.280;2023-02-27T02:30:03;100257.81;;;-1.50;100.00
13080;BME280;6606;49.154;9.280;2023-02-27T02:36:46;100253.41;;;-1.57;100.00
13080;BME280;6606;49.154;9.280;2023-02-27T02:39:56;100256.03;;;-1.56;100.00
13080;BME280;6606;49.154;9.280;2023-02-27T02:42:46;100260.31;;;-1.59;100.00
13080;BME280;6606;49.154;9.280;2023-02-27T02:45:37;100263.81;;;-1.54;100.00
13080;BME280;6606;49.154;9.280;2023-02-27T02:48:27;100265.56;;;-1.55;100.00
13080;BME280;6606;49.154;9.280;2023-02-27T02:51:17;100252.56;;;-1.56;100.00
13080;BME280;6606;49.154;9.280;2023-02-27T02:54:08;100262.97;;;-1.56;100.00
13080;BME280;6606;49.154;9.280;2023-02-27T02:56:58;100247.31;;;-1.61;100.00
13080;BME280;6606;49.154;9.280;2023-02-27T02:59:47;100257.69;;;-1.64;100.00
13080;BME280;6606;49.154;9.280;2023-02-27T03:02:34;100255.00;;;-1.74;100.00
13080;BME280;6606;49.154;9.280;2023-02-27T03:05:22;100260.22;;;-1.71;100.00
13080;BME280;6606;49.154;9.280;2023-02-27T03:08:10;100264.59;;;-1.69;100.00
13080;BME280;6606;49.154;9.280;2023-02-27T03:10:55;100265.50;;;-1.62;100.00
13080;BME280;6606;49.154;9.280;2023-02-27T03:13:43;100268.88;;;-1.69;100.00
13080;BME280;6606;49.154;9.280;2023-02-27T03:16:32;100270.59;;;-1.74;100.00
13080;BME280;6606;49.154;9.280;2023-02-27T03:19:17;100274.00;;;-1.79;100.00
13080;BME280;6606;49.154;9.280;2023-02-27T03:22:04;100272.31;;;-1.77;100.00
13080;BME280;6606;49.154;9.280;2023-02-27T03:24:50;100280.00;;;-1.86;100.00
13080;BME280;6606;49.154;9.280;2023-02-27T03:27:36;100275.75;;;-1.78;100.00
13080;BME280;6606;49.154;9.280;2023-02-27T03:30:26;100280.03;;;-1.83;100.00
13080;BME280;6606;49.154;9.280;2023-02-27T03:33:12;100279.16;;;-1.85;100.00
13080;BME280;6606;49.154;9.280;2023-02-27T03:36:03;100287.81;;;-1.83;100.00
13080;BME280;6606;49.154;9.280;2023-02-27T03:38:52;100282.59;;;-1.86;100.00
13080;BME280;6606;49.154;9.280;2023-02-27T03:41:41;100292.16;;;-1.85;100.00
13080;BME280;6606;49.154;9.280;2023-02-27T03:44:49;100291.22;;;-1.90;100.00
13080;BME280;6606;49.154;9.280;2023-02-27T03:47:35;100292.97;;;-1.90;100.00
13080;BME280;6606;49.154;9.280;2023-02-27T03:50:17;100294.72;;;-1.88;100.00
13080;BME280;6606;49.154;9.280;2023-02-27T03:52:59;100294.72;;;-1.86;100.00
13080;BME280;6606;49.154;9.280;2023-02-27T03:55:44;100302.47;;;-1.89;100.00
13080;BME280;6606;49.154;9.280;2023-02-27T03:58:27;100304.25;;;-1.87;100.00
13080;BME280;6606;49.154;9.280;2023-02-27T04:01:08;100292.97;;;-1.86;100.00
13080;BME280;6606;49.154;9.280;2023-02-27T04:03:55;100299.91;;;-1.86;100.00
13080;BME280;6606;49.154;9.280;2023-02-27T04:07:08;100298.19;;;-1.86;100.00
13080;BME280;6606;49.154;9.280;2023-02-27T04:10:18;100302.44;;;-1.94;100.00
13080;BME280;6606;49.154;9.280;2023-02-27T04:13:17;100304.16;;;-1.94;100.00
13080;BME280;6606;49.154;9.280;2023-02-27T04:19:22;100310.16;;;-2.00;100.00
13080;BME280;6606;49.154;9.280;2023-02-27T04:22:20;100310.16;;;-1.99;100.00
13080;BME280;6606;49.154;9.280;2023-02-27T04:25:23;100312.66;;;-2.11;100.00
13080;BME280;6606;49.154;9.280;2023-02-27T04:28:14;100316.13;;;-2.07;100.00
13080;BME280;6606;49.154;9.280;2023-02-27T04:31:01;100312.75;;;-1.99;100.00
13080;BME280;6606;49.154;9.280;2023-02-27T04:33:49;100311.88;;;-2.04;100.00
13080;BME280;6606;49.154;9.280;2023-02-27T04:36:39;100323.97;;;-2.04;100.00
13080;BME280;6606;49.154;9.280;2023-02-27T04:39:25;100315.34;;;-2.00;100.00
13080;BME280;6606;49.154;9.280;2023-02-27T04:42:12;100320.53;;;-2.03;100.00
13080;BME280;6606;49.154;9.280;2023-02-27T04:44:58;100319.66;;;-2.04;100.00
13080;BME280;6606;49.154;9.280;2023-02-27T04:47:46;100325.63;;;-2.09;100.00
13080;BME280;6606;49.154;9.280;2023-02-27T04:50:34;100321.28;;;-2.12;100.00
13080;BME280;6606;49.154;9.280;2023-02-27T04:53:21;100329.06;;;-2.13;100.00
13080;BME280;6606;49.154;9.280;2023-02-27T04:56:08;100328.19;;;-2.14;100.00
13080;BME280;6606;49.154;9.280;2023-02-27T04:58:54;100319.56;;;-2.10;100.00
13080;BME280;6606;49.154;9.280;2023-02-27T05:01:40;100322.13;;;-2.13;100.00
13080;BME280;6606;49.154;9.280;2023-02-27T05:04:25;100322.97;;;-2.15;100.00
13080;BME280;6606;49.154;9.280;2023-02-27T05:07:12;100324.56;;;-2.25;100.00
13080;BME280;6606;49.154;9.280;2023-02-27T05:09:59;100328.03;;;-2.26;100.00
13080;BME280;6606;49.154;9.280;2023-02-27T05:12:47;100328.91;;;-2.26;100.00
13080;BME280;6606;49.154;9.280;2023-02-27T05:15:34;100327.19;;;-2.24;100.00
13080;BME280;6606;49.154;9.280;2023-02-27T05:18:19;100328.91;;;-2.26;100.00
13080;BME280;6606;49.154;9.280;2023-02-27T05:21:09;100327.16;;;-2.27;100.00
13080;BME280;6606;49.154;9.280;2023-02-27T05:24:05;100329.66;;;-2.34;100.00
13080;BME280;6606;49.154;9.280;2023-02-27T05:27:05;100330.50;;;-2.37;100.00
13080;BME280;6606;49.154;9.280;2023-02-27T05:29:51;100332.19;;;-2.39;100.00
13080;BME280;6606;49.154;9.280;2023-02-27T05:32:37;100337.50;;;-2.33;100.00
13080;BME280;6606;49.154;9.280;2023-02-27T05:35:23;100338.25;;;-2.40;100.00
13080;BME280;6606;49.154;9.280;2023-02-27T05:38:09;100339.88;;;-2.48;100.00
13080;BME280;6606;49.154;9.280;2023-02-27T05:40:56;100339.06;;;-2.44;100.00
13080;BME280;6606;49.154;9.280;2023-02-27T05:43:41;100339.09;;;-2.42;100.00
13080;BME280;6606;49.154;9.280;2023-02-27T05:46:26;100345.19;;;-2.39;100.00
13080;BME280;6606;49.154;9.280;2023-02-27T05:49:15;100346.78;;;-2.49;100.00
13080;BME280;6606;49.154;9.280;2023-02-27T05:52:01;100347.63;;;-2.51;100.00
13080;BME280;6606;49.154;9.280;2023-02-27T05:54:48;100348.53;;;-2.48;100.00
13080;BME280;6606;49.154;9.280;2023-02-27T05:57:35;100349.41;;;-2.47;100.00
13080;BME280;6606;49.154;9.280;2023-02-27T06:00:25;100346.78;;;-2.49;100.00
13080;BME280;6606;49.154;9.280;2023-02-27T06:03:10;100341.59;;;-2.49;100.00
13080;BME280;6606;49.154;9.280;2023-02-27T06:05:53;100349.34;;;-2.50;100.00
13080;BME280;6606;49.154;9.280;2023-02-27T06:08:36;100351.13;;;-2.46;100.00
13080;BME280;6606;49.154;9.280;2023-02-27T06:11:18;100359.81;;;-2.44;100.00
13080;BME280;6606;49.154;9.280;2023-02-27T06:13:59;100354.66;;;-2.41;100.00
13080;BME280;6606;49.154;9.280;2023-02-27T06:16:42;100356.50;;;-2.34;100.00
13080;BME280;6606;49.154;9.280;2023-02-27T06:19:24;100359.91;;;-2.38;100.00
13080;BME280;6606;49.154;9.280;2023-02-27T06:22:06;100357.31;;;-2.36;100.00
13080;BME280;6606;49.154;9.280;2023-02-27T06:24:48;100354.75;;;-2.35;100.00
13080;BME280;6606;49.154;9.280;2023-02-27T06:28:02;100362.63;;;-2.29;100.00
13080;BME280;6606;49.154;9.280;2023-02-27T06:31:31;100366.91;;;-2.32;100.00
13080;BME280;6606;49.154;9.280;2023-02-27T06:34:30;100377.44;;;-2.22;100.00
13080;BME280;6606;49.154;9.280;2023-02-27T06:37:23;100379.19;;;-2.17;100.00
13080;BME280;6606;49.154;9.280;2023-02-27T06:40:06;100380.16;;;-2.09;100.00
13080;BME280;6606;49.154;9.280;2023-02-27T06:42:50;100385.38;;;-2.08;100.00
13080;BME280;6606;49.154;9.280;2023-02-27T06:45:32;100379.34;;;-2.05;100.00
13080;BME280;6606;49.154;9.280;2023-02-27T06:48:14;100376.69;;;-2.10;100.00
13080;BME280;6606;49.154;9.280;2023-02-27T06:50:57;100382.91;;;-1.97;100.00
13080;BME280;6606;49.154;9.280;2023-02-27T06:53:39;100389.94;;;-1.90;100.00
13080;BME280;6606;49.154;9.280;2023-02-27T06:56:20;100379.59;;;-1.84;100.00
13080;BME280;6606;49.154;9.280;2023-02-27T06:59:02;100385.72;;;-1.79;100.00
13080;BME280;6606;49.154;9.280;2023-02-27T07:01:44;100398.78;;;-1.72;100.00
13080;BME280;6606;49.154;9.280;2023-02-27T07:04:25;100397.13;;;-1.66;100.00
13080;BME280;6606;49.154;9.280;2023-02-27T07:07:09;100391.91;;;-1.69;100.00
13080;BME280;6606;49.154;9.280;2023-02-27T07:09:50;100397.31;;;-1.49;100.00
13080;BME280;6606;49.154;9.280;2023-02-27T07:12:32;100393.88;;;-1.48;100.00
13080;BME280;6606;49.154;9.280;2023-02-27T07:15:14;100388.69;;;-1.45;100.00
13080;BME280;6606;49.154;9.280;2023-02-27T07:17:56;100391.28;;;-1.43;100.00
13080;BME280;6606;49.154;9.280;2023-02-27T07:20:37;100394.81;;;-1.38;100.00
13080;BME280;6606;49.154;9.280;2023-02-27T07:23:21;100395.75;;;-1.31;100.00
13080;BME280;6606;49.154;9.280;2023-02-27T07:26:03;100394.13;;;-1.20;100.00
13080;BME280;6606;49.154;9.280;2023-02-27T07:28:45;100405.47;;;-1.12;100.00
13080;BME280;6606;49.154;9.280;2023-02-27T07:31:26;100402.84;;;-1.12;100.00
13080;BME280;6606;49.154;9.280;2023-02-27T07:34:08;100396.88;;;-1.05;100.00
13080;BME280;6606;49.154;9.280;2023-02-27T07:36:51;100401.22;;;-1.01;100.00
13080;BME280;6606;49.154;9.280;2023-02-27T07:39:34;100398.63;;;0.77;100.00
13080;BME280;6606;49.154;9.280;2023-02-27T07:42:15;100391.66;;;4.04;100.00
13080;BME280;6606;49.154;9.280;2023-02-27T07:44:57;100391.63;;;5.27;69.71
13080;BME280;6606;49.154;9.280;2023-02-27T07:47:39;100384.25;;;6.78;59.23
13080;BME280;6606;49.154;9.280;2023-02-27T07:50:21;100386.03;;;4.34;67.15
13080;BME280;6606;49.154;9.280;2023-02-27T07:53:03;100400.97;;;2.32;91.17
13080;BME280;6606;49.154;9.280;2023-02-27T07:55:48;100400.38;;;1.27;100.00
13080;BME280;6606;49.154;9.280;2023-02-27T07:58:30;100382.03;;;0.47;100.00
13080;BME280;6606;49.154;9.280;2023-02-27T08:01:12;100386.34;;;0.28;100.00
13080;BME280;6606;49.154;9.280;2023-02-27T08:03:54;100402.78;;;0.07;100.00
13080;BME280;6606;49.154;9.280;2023-02-27T08:06:36;100408.91;;;0.23;100.00
13080;BME280;6606;49.154;9.280;2023-02-27T08:09:18;100395.91;;;0.37;100.00
13080;BME280;6606;49.154;9.280;2023-02-27T08:12:01;100404.66;;;0.51;100.00
13080;BME280;6606;49.154;9.280;2023-02-27T08:14:43;100399.41;;;0.37;100.00
13080;BME280;6606;49.154;9.280;2023-02-27T08:17:25;100396.81;;;0.37;100.00
13080;BME280;6606;49.154;9.280;2023-02-27T08:20:08;100404.63;;;0.40;100.00
13080;BME280;6606;49.154;9.280;2023-02-27T08:22:51;100414.22;;;0.51;100.00
13080;BME280;6606;49.154;9.280;2023-02-27T08:25:32;100403.81;;;0.63;100.00
13080;BME280;6606;49.154;9.280;2023-02-27T08:28:15;100401.22;;;0.64;100.00
13080;BME280;6606;49.154;9.280;2023-02-27T08:30:58;100407.34;;;0.96;100.00
13080;BME280;6606;49.154;9.280;2023-02-27T08:33:40;100403.84;;;0.94;100.00
13080;BME280;6606;49.154;9.280;2023-02-27T08:36:22;100403.88;;;1.06;100.00
13080;BME280;6606;49.154;9.280;2023-02-27T08:39:04;100395.16;;;1.10;100.00
13080;BME280;6606;49.154;9.280;2023-02-27T08:41:52;100411.69;;;0.94;100.00
13080;BME280;6606;49.154;9.280;2023-02-27T08:44:35;100402.97;;;1.13;100.00
13080;BME280;6606;49.154;9.280;2023-02-27T08:47:17;100404.75;;;1.33;100.00
13080;BME280;6606;49.154;9.280;2023-02-27T08:49:59;100416.91;;;1.14;100.00
13080;BME280;6606;49.154;9.280;2023-02-27T08:52:40;100405.59;;;1.27;100.00
13080;BME280;6606;49.154;9.280;2023-02-27T08:55:22;100400.38;;;1.41;100.00
13080;BME280;6606;49.154;9.280;2023-02-27T08:58:04;100395.94;;;1.72;100.00
13080;BME280;6606;49.154;9.280;2023-02-27T09:00:47;100398.56;;;1.61;100.00
13080;BME280;6606;49.154;9.280;2023-02-27T09:03:28;100413.38;;;1.73;100.00
13080;BME280;6606;49.154;9.280;2023-02-27T09:06:11;100402.06;;;1.66;100.00
13080;BME280;6606;49.154;9.280;2023-02-27T09:08:52;100400.28;;;1.74;100.00
13080;BME280;6606;49.154;9.280;2023-02-27T09:11:34;100405.53;;;1.71;100.00
13080;BME280;6606;49.154;9.280;2023-02-27T09:14:16;100406.41;;;1.69;100.00
13080;BME280;6606;49.154;9.280;2023-02-27T09:16:59;100411.63;;;1.83;100.00
13080;BME280;6606;49.154;9.280;2023-02-27T09:19:41;100412.44;;;1.94;100.00
13080;BME280;6606;49.154;9.280;2023-02-27T09:22:23;100417.56;;;2.22;100.00
13080;BME280;6606;49.154;9.280;2023-02-27T09:25:05;100419.34;;;2.13;100.00
13080;BME280;6606;49.154;9.280;2023-02-27T09:27:47;100426.28;;;2.24;100.00
13080;BME280;6606;49.154;9.280;2023-02-27T09:30:29;100420.94;;;2.48;100.00
13080;BME280;6606;49.154;9.280;2023-02-27T09:33:14;100437.59;;;2.29;100.00
13080;BME280;6606;49.154;9.280;2023-02-27T09:35:56;100435.88;;;2.28;100.00
13080;BME280;6606;49.154;9.280;2023-02-27T09:38:38;100435.84;;;2.25;100.00
13080;BME280;6606;49.154;9.280;2023-02-27T09:41:30;100445.34;;;2.47;100.00
13080;BME280;6606;49.154;9.280;2023-02-27T09:44:25;100441.00;;;2.45;100.00
13080;BME280;6606;49.154;9.280;2023-02-27T09:47:13;100450.63;;;2.36;92.65
13080;BME280;6606;49.154;9.280;2023-02-27T09:50:03;100454.19;;;2.22;100.00
13080;BME280;6606;49.154;9.280;2023-02-27T09:52:45;100439.13;;;2.71;99.71
13080;BME280;6606;49.154;9.280;2023-02-27T09:55:30;100443.34;;;2.95;96.79
13080;BME280;6606;49.154;9.280;2023-02-27T09:58:28;100454.66;;;2.97;94.36
13080;BME280;6606;49.154;9.280;2023-02-27T10:01:15;100443.34;;;2.95;95.55
13080;BME280;6606;49.154;9.280;2023-02-27T10:04:23;100464.91;;;3.28;97.82
13080;BME280;6606;49.154;9.280;2023-02-27T10:07:14;100458.91;;;3.18;93.71
13080;BME280;6606;49.154;9.280;2023-02-27T10:10:06;100443.00;;;3.40;87.93
13080;BME280;6606;49.154;9.280;2023-02-27T10:13:03;100439.31;;;3.61;86.92
13080;BME280;6606;49.154;9.280;2023-02-27T10:15:47;100451.63;;;3.52;81.80
13080;BME280;6606;49.154;9.280;2023-02-27T10:18:32;100457.59;;;3.68;76.74
13080;BME280;6606;49.154;9.280;2023-02-27T10:21:19;100442.69;;;3.73;73.69
13080;BME280;6606;49.154;9.280;2023-02-27T10:24:06;100454.59;;;4.04;64.53
13080;BME280;6606;49.154;9.280;2023-02-27T10:26:53;100451.94;;;4.07;66.31
13080;BME280;6606;49.154;9.280;2023-02-27T10:29:36;100444.97;;;4.04;63.62
13080;BME280;6606;49.154;9.280;2023-02-27T10:32:24;100458.16;;;4.00;65.10
13080;BME280;6606;49.154;9.280;2023-02-27T10:35:11;100457.97;;;4.16;75.77
13080;BME280;6606;49.154;9.280;2023-02-27T10:37:59;100458.25;;;3.90;70.03
13080;BME280;6606;49.154;9.280;2023-02-27T10:40:44;100456.38;;;4.02;68.88
13080;BME280;6606;49.154;9.280;2023-02-27T10:43:26;100454.53;;;4.10;66.84
13080;BME280;6606;49.154;9.280;2023-02-27T10:46:12;100467.00;;;3.89;64.51
13080;BME280;6606;49.154;9.280;2023-02-27T10:48:56;100465.09;;;4.04;65.33
13080;BME280;6606;49.154;9.280;2023-02-27T10:51:39;100449.84;;;4.39;58.43
13080;BME280;6606;49.154;9.280;2023-02-27T10:54:24;100461.38;;;4.23;63.72
13080;BME280;6606;49.154;9.280;2023-02-27T10:57:18;100477.75;;;3.62;62.12
13080;BME280;6606;49.154;9.280;2023-02-27T11:00:04;100461.84;;;3.80;64.25
13080;BME280;6606;49.154;9.280;2023-02-27T11:02:49;100453.75;;;4.03;61.18
13080;BME280;6606;49.154;9.280;2023-02-27T11:05:34;100466.94;;;3.95;60.69
13080;BME280;6606;49.154;9.280;2023-02-27T11:08:20;100458.31;;;3.84;64.25
13080;BME280;6606;49.154;9.280;2023-02-27T11:11:04;100470.69;;;3.67;59.64
13080;BME280;6606;49.154;9.280;2023-02-27T11:13:48;100460.56;;;3.27;61.51
13080;BME280;6606;49.154;9.280;2023-02-27T11:16:44;100464.88;;;3.34;61.60
13080;BME280;6606;49.154;9.280;2023-02-27T11:19:31;100467.13;;;3.75;61.66
13080;BME280;6606;49.154;9.280;2023-02-27T11:22:15;100462.34;;;4.14;56.75
13080;BME280;6606;49.154;9.280;2023-02-27T11:25:19;100449.00;;;4.34;56.23
13080;BME280;6606;49.154;9.280;2023-02-27T11:28:12;100448.69;;;4.59;57.75
13080;BME280;6606;49.154;9.280;2023-02-27T11:30:59;100446.69;;;4.78;58.28
13080;BME280;6606;49.154;9.280;2023-02-27T11:33:48;100453.56;;;4.87;54.32
13080;BME280;6606;49.154;9.280;2023-02-27T11:36:38;100440.81;;;4.57;55.50
13080;BME280;6606;49.154;9.280;2023-02-27T11:39:24;100452.31;;;4.49;56.48
13080;BME280;6606;49.154;9.280;2023-02-27T11:42:19;100450.22;;;4.75;56.98
13080;BME280;6606;49.154;9.280;2023-02-27T11:45:05;100453.78;;;4.71;56.56
13080;BME280;6606;49.154;9.280;2023-02-27T11:47:53;100459.28;;;4.53;57.65
13080;BME280;6606;49.154;9.280;2023-02-27T11:50:44;100441.53;;;4.70;56.07
13080;BME280;6606;49.154;9.280;2023-02-27T11:53:42;100464.31;;;4.68;59.85
13080;BME280;6606;49.154;9.280;2023-02-27T11:56:42;100484.59;;;4.57;56.04
13080;BME280;6606;49.154;9.280;2023-02-27T11:59:38;100440.16;;;4.41;57.00
13080;BME280;6606;49.154;9.280;2023-02-27T12:02:27;100465.72;;;4.94;55.61
13080;BME280;6606;49.154;9.280;2023-02-27T12:05:16;100459.91;;;4.70;54.97
13080;BME280;6606;49.154;9.280;2023-02-27T12:08:02;100448.28;;;4.87;51.70
13080;BME280;6606;49.154;9.280;2023-02-27T12:10:48;100443.09;;;4.83;51.67
13080;BME280;6606;49.154;9.280;2023-02-27T12:13:35;100436.31;;;4.67;50.84
13080;BME280;6606;49.154;9.280;2023-02-27T12:16:21;100447.03;;;4.53;50.43
13080;BME280;6606;49.154;9.280;2023-02-27T12:19:14;100454.34;;;4.92;49.82
13080;BME280;6606;49.154;9.280;2023-02-27T12:22:03;100433.69;;;4.69;50.68
13080;BME280;6606;49.154;9.280;2023-02-27T12:24:50;100448.81;;;5.10;52.18
13080;BME280;6606;49.154;9.280;2023-02-27T12:27:42;100435.31;;;5.35;48.69
13080;BME280;6606;49.154;9.280;2023-02-27T12:30:26;100453.16;;;5.14;49.67
13080;BME280;6606;49.154;9.280;2023-02-27T12:33:17;100415.38;;;5.21;49.02
13080;BME280;6606;49.154;9.280;2023-02-27T12:36:02;100406.16;;;5.47;50.27
13080;BME280;6606;49.154;9.280;2023-02-27T12:38:46;100424.88;;;5.28;49.36
13080;BME280;6606;49.154;9.280;2023-02-27T12:41:39;100415.91;;;5.42;48.32
13080;BME280;6606;49.154;9.280;2023-02-27T12:44:42;100428.25;;;5.38;47.65
13080;BME280;6606;49.154;9.280;2023-02-27T12:47:37;100423.91;;;4.78;48.79
13080;BME280;6606;49.154;9.280;2023-02-27T12:50:22;100422.28;;;4.71;49.76
13080;BME280;6606;49.154;9.280;2023-02-27T12:53:21;100407.06;;;4.92;50.30
13080;BME280;6606;49.154;9.280;2023-02-27T12:56:12;100399.00;;;5.04;49.59
13080;BME280;6606;49.154;9.280;2023-02-27T12:59:00;100405.97;;;5.59;51.29
13080;BME280;6606;49.154;9.280;2023-02-27T13:01:50;100428.13;;;5.46;52.07
13080;BME280;6606;49.154;9.280;2023-02-27T13:04:36;100412.69;;;5.24;50.35
13080;BME280;6606;49.154;9.280;2023-02-27T13:07:29;100414.41;;;4.68;51.04
13080;BME280;6606;49.154;9.280;2023-02-27T13:10:25;100403.34;;;4.48;51.06
13080;BME280;6606;49.154;9.280;2023-02-27T13:13:17;100405.28;;;4.33;52.48
13080;BME280;6606;49.154;9.280;2023-02-27T13:16:05;100397.00;;;5.21;51.12
13080;BME280;6606;49.154;9.280;2023-02-27T13:18:54;100408.13;;;5.36;48.87
13080;BME280;6606;49.154;9.280;2023-02-27T13:21:39;100395.25;;;5.70;47.34
13080;BME280;6606;49.154;9.280;2023-02-27T13:24:24;100406.63;;;5.21;45.82
13080;BME280;6606;49.154;9.280;2023-02-27T13:27:12;100399.31;;;5.38;45.39
13080;BME280;6606;49.154;9.280;2023-02-27T13:30:07;100396.97;;;6.18;43.85
13080;BME280;6606;49.154;9.280;2023-02-27T13:32:54;100376.31;;;6.41;42.60
13080;BME280;6606;49.154;9.280;2023-02-27T13:35:46;100376.94;;;6.52;43.62
13080;BME280;6606;49.154;9.280;2023-02-27T13:38:40;100370.81;;;6.10;44.05
13080;BME280;6606;49.154;9.280;2023-02-27T13:41:37;100400.31;;;5.81;45.83
13080;BME280;6606;49.154;9.280;2023-02-27T13:44:46;100405.81;;;5.17;45.91
13080;BME280;6606;49.154;9.280;2023-02-27T13:47:46;100387.56;;;5.59;46.21
13080;BME280;6606;49.154;9.280;2023-02-27T13:50:50;100388.56;;;5.01;47.17
13080;BME280;6606;49.154;9.280;2023-02-27T13:53:32;100397.78;;;4.69;46.35
13080;BME280;6606;49.154;9.280;2023-02-27T13:56:19;100395.06;;;4.77;46.26
13080;BME280;6606;49.154;9.280;2023-02-27T13:59:10;100396.03;;;5.25;45.27
13080;BME280;6606;49.154;9.280;2023-02-27T14:01:58;100375.53;;;5.44;45.05
13080;BME280;6606;49.154;9.280;2023-02-27T14:04:48;100384.09;;;5.57;44.57
13080;BME280;6606;49.154;9.280;2023-02-27T14:07:32;100383.16;;;5.60;44.04
13080;BME280;6606;49.154;9.280;2023-02-27T14:10:20;100390.72;;;4.74;44.67
13080;BME280;6606;49.154;9.280;2023-02-27T14:13:03;100391.25;;;4.96;44.91
13080;BME280;6606;49.154;9.280;2023-02-27T14:16:03;100389.66;;;5.39;44.24
13080;BME280;6606;49.154;9.280;2023-02-27T14:18:55;100397.75;;;5.78;44.38
13080;BME280;6606;49.154;9.280;2023-02-27T14:21:58;100404.69;;;6.27;43.65
13080;BME280;6606;49.154;9.280;2023-02-27T14:24:43;100401.81;;;5.92;44.54
13080;BME280;6606;49.154;9.280;2023-02-27T14:27:31;100413.06;;;5.54;44.12
13080;BME280;6606;49.154;9.280;2023-02-27T14:30:27;100410.22;;;4.58;44.73
13080;BME280;6606;49.154;9.280;2023-02-27T14:33:14;100399.91;;;4.43;47.54
13080;BME280;6606;49.154;9.280;2023-02-27T14:35:59;100394.91;;;4.24;47.86
13080;BME280;6606;49.154;9.280;2023-02-27T14:38:43;100401.28;;;4.03;47.59
13080;BME280;6606;49.154;9.280;2023-02-27T14:41:34;100412.75;;;3.91;49.12
13080;BME280;6606;49.154;9.280;2023-02-27T14:44:21;100414.09;;;4.29;46.82
13080;BME280;6606;49.154;9.280;2023-02-27T14:47:04;100401.97;;;4.81;45.77
13080;BME280;6606;49.154;9.280;2023-02-27T14:49:46;100402.09;;;5.31;45.73
13080;BME280;6606;49.154;9.280;2023-02-27T14:52:40;100396.44;;;5.52;43.14
13080;BME280;6606;49.154;9.280;2023-02-27T14:55:28;100397.03;;;5.68;43.17